sensor_id;sensor_type;location;lat;lon;timestamp;pressure;altitude;pressure_sealevel;temperature;humidity
73941;BME280;62294;48.554;10.202;2024-03-06T00:01:16;82470.06;;;4.21;100.00
73941;BME280;62294;48.554;10.202;2024-03-06T00:03:43;82443.66;;;4.19;100.00
73941;BME280;62294;48.554;10.202;2024-03-06T00:06:09;82382.34;;;4.22;100.00
73941;BME280;62294;48.554;10.202;2024-03-06T00:08:36;82321.72;;;4.26;100.00
73941;BME280;62294;48.554;10.202;2024-03-06T00:11:03;82234.03;;;4.35;100.00
73941;BME280;62294;48.554;10.202;2024-03-06T00:13:30;82176.53;;;4.37;100.00
73941;BME280;62294;48.554;10.202;2024-03-06T00:15:56;82136.31;;;4.34;100.00
73941;BME280;62294;48.554;10.202;2024-03-06T00:18:23;82104.34;;;4.36;100.00
73941;BME280;62294;48.554;10.202;2024-03-06T00:20:49;82071.81;;;4.39;100.00
73941;BME280;62294;48.554;10.202;2024-03-06T00:23:16;82095.72;;;4.27;100.00
73941;BME280;62294;48.554;10.202;2024-03-06T00:25:43;82060.94;;;4.27;100.00
73941;BME280;62294;48.554;10.202;2024-03-06T00:28:09;81993.16;;;4.39;100.00
73941;BME280;62294;48.554;10.202;2024-03-06T00:30:37;81964.50;;;4.41;100.00
73941;BME280;62294;48.554;10.202;2024-03-06T00:33:03;81975.31;;;4.29;100.00
73941;BME280;62294;48.554;10.202;2024-03-06T00:35:30;81987.91;;;4.23;100.00
73941;BME280;62294;48.554;10.202;2024-03-06T00:37:56;81996.44;;;4.16;100.00
73941;BME280;62294;48.554;10.202;2024-03-06T00:40:23;82017.72;;;4.05;100.00
73941;BME280;62294;48.554;10.202;2024-03-06T00:42:50;81989.59;;;4.06;100.00
73941;BME280;62294;48.554;10.202;2024-03-06T00:45:16;81965.66;;;4.09;100.00
73941;BME280;62294;48.554;10.202;2024-03-06T00:47:43;81887.56;;;4.15;100.00
73941;BME280;62294;48.554;10.202;2024-03-06T00:50:09;81823.78;;;4.20;100.00
73941;BME280;62294;48.554;10.202;2024-03-06T00:52:36;81750.06;;;4.24;100.00
73941;BME280;62294;48.554;10.202;2024-03-06T00:55:03;81730.84;;;4.21;100.00
73941;BME280;62294;48.554;10.202;2024-03-06T00:57:30;81702.00;;;4.21;100.00
73941;BME280;62294;48.554;10.202;2024-03-06T00:59:56;81680.88;;;4.19;100.00
73941;BME280;62294;48.554;10.202;2024-03-06T01:02:23;81650.63;;;4.18;100.00
73941;BME280;62294;48.554;10.202;2024-03-06T01:04:49;81619.88;;;4.19;100.00
73941;BME280;62294;48.554;10.202;2024-03-06T01:07:16;81580.72;;;4.21;100.00
73941;BME280;62294;48.554;10.202;2024-03-06T01:09:43;81551.91;;;4.21;100.00
73941;BME280;62294;48.554;10.202;2024-03-06T01:12:10;81525.69;;;4.21;100.00
73941;BME280;62294;48.554;10.202;2024-03-06T01:14:37;81494.22;;;4.21;100.00
73941;BME280;62294;48.554;10.202;2024-03-06T01:17:06;81480.09;;;4.16;100.00
73941;BME280;62294;48.554;10.202;2024-03-06T01:19:32;81430.47;;;4.18;100.00
73941;BME280;62294;48.554;10.202;2024-03-06T01:21:59;81375.06;;;4.22;100.00
73941;BME280;62294;48.554;10.202;2024-03-06T01:24:25;81335.06;;;4.21;100.00
73941;BME280;62294;48.554;10.202;2024-03-06T01:26:52;81345.59;;;4.14;100.00
73941;BME280;62294;48.554;10.202;2024-03-06T01:29:19;81290.66;;;4.23;100.00
73941;BME280;62294;48.554;10.202;2024-03-06T01:31:45;81201.47;;;4.31;100.00
73941;BME280;62294;48.554;10.202;2024-03-06T01:34:13;81147.25;;;4.33;100.00
73941;BME280;62294;48.554;10.202;2024-03-06T01:36:39;81122.28;;;4.32;100.00
73941;BME280;62294;48.554;10.202;2024-03-06T01:39:06;81092.19;;;4.33;100.00
73941;BME280;62294;48.554;10.202;2024-03-06T01:41:33;81045.19;;;4.36;100.00
73941;BME280;62294;48.554;10.202;2024-03-06T01:43:59;81000.75;;;4.38;100.00
73941;BME280;62294;48.554;10.202;2024-03-06T01:46:26;80969.69;;;4.34;100.00
73941;BME280;62294;48.554;10.202;2024-03-06T01:48:53;80932.47;;;4.36;100.00
73941;BME280;62294;48.554;10.202;2024-03-06T01:51:19;80901.28;;;4.40;100.00
73941;BME280;62294;48.554;10.202;2024-03-06T01:53:46;80854.09;;;4.40;100.00
73941;BME280;62294;48.554;10.202;2024-03-06T01:56:13;80826.63;;;4.41;100.00
73941;BME280;62294;48.554;10.202;2024-03-06T01:58:46;80814.09;;;4.39;100.00
73941;BME280;62294;48.554;10.202;2024-03-06T02:01:14;80744.69;;;4.50;100.00
73941;BME280;62294;48.554;10.202;2024-03-06T02:03:43;80642.88;;;4.46;100.00
73941;BME280;62294;48.554;10.202;2024-03-06T02:06:11;80634.19;;;4.44;100.00
73941;BME280;62294;48.554;10.202;2024-03-06T02:08:38;80596.50;;;4.49;100.00
73941;BME280;62294;48.554;10.202;2024-03-06T02:11:05;80582.56;;;4.46;100.00
73941;BME280;62294;48.554;10.202;2024-03-06T02:13:33;80585.75;;;4.45;100.00
73941;BME280;62294;48.554;10.202;2024-03-06T02:16:00;80567.66;;;4.49;100.00
73941;BME280;62294;48.554;10.202;2024-03-06T02:18:27;80565.03;;;4.49;100.00
73941;BME280;62294;48.554;10.202;2024-03-06T02:20:53;80560.38;;;4.47;100.00
73941;BME280;62294;48.554;10.202;2024-03-06T02:23:20;80576.38;;;4.42;100.00
73941;BME280;62294;48.554;10.202;2024-03-06T02:25:48;80517.59;;;4.45;100.00
73941;BME280;62294;48.554;10.202;2024-03-06T02:28:15;80508.91;;;4.42;100.00
73941;BME280;62294;48.554;10.202;2024-03-06T02:30:43;80492.50;;;4.42;100.00
73941;BME280;62294;48.554;10.202;2024-03-06T02:33:10;80444.44;;;4.49;100.00
73941;BME280;62294;48.554;10.202;2024-03-06T02:35:37;80379.72;;;4.51;100.00
73941;BME280;62294;48.554;10.202;2024-03-06T02:38:05;80391.91;;;4.47;100.00
73941;BME280;62294;48.554;10.202;2024-03-06T02:40:33;80397.13;;;4.47;100.00
73941;BME280;62294;48.554;10.202;2024-03-06T02:42:59;80390.50;;;4.46;100.00
73941;BME280;62294;48.554;10.202;2024-03-06T02:45:26;80337.78;;;4.51;100.00
73941;BME280;62294;48.554;10.202;2024-03-06T02:47:53;80312.25;;;4.52;100.00
73941;BME280;62294;48.554;10.202;2024-03-06T02:50:19;80305.63;;;4.51;100.00
73941;BME280;62294;48.554;10.202;2024-03-06T02:52:47;80298.34;;;4.49;100.00
73941;BME280;62294;48.554;10.202;2024-03-06T02:55:14;80291.03;;;4.48;100.00
73941;BME280;62294;48.554;10.202;2024-03-06T02:57:41;80278.03;;;4.50;100.00
73941;BME280;62294;48.554;10.202;2024-03-06T03:00:08;80273.13;;;4.44;100.00
73941;BME280;62294;48.554;10.202;2024-03-06T03:02:39;80252.72;;;4.43;100.00
73941;BME280;62294;48.554;10.202;2024-03-06T03:05:07;80225.56;;;4.38;100.00
73941;BME280;62294;48.554;10.202;2024-03-06T03:07:34;80168.84;;;4.43;100.00
73941;BME280;62294;48.554;10.202;2024-03-06T03:10:01;80155.88;;;4.45;100.00
73941;BME280;62294;48.554;10.202;2024-03-06T03:12:27;80121.69;;;4.43;100.00
73941;BME280;62294;48.554;10.202;2024-03-06T03:14:54;80047.59;;;4.54;100.00
73941;BME280;62294;48.554;10.202;2024-03-06T03:17:20;79975.13;;;4.58;100.00
73941;BME280;62294;48.554;10.202;2024-03-06T03:19:47;79896.88;;;4.66;100.00
73941;BME280;62294;48.554;10.202;2024-03-06T03:22:13;79900.78;;;4.65;100.00
73941;BME280;62294;48.554;10.202;2024-03-06T03:24:41;79909.00;;;4.60;100.00
73941;BME280;62294;48.554;10.202;2024-03-06T03:27:08;79923.13;;;4.55;100.00
73941;BME280;62294;48.554;10.202;2024-03-06T03:29:34;79893.94;;;4.60;100.00
73941;BME280;62294;48.554;10.202;2024-03-06T03:32:01;79911.50;;;4.58;100.00
73941;BME280;62294;48.554;10.202;2024-03-06T03:34:28;79865.22;;;4.62;100.00
73941;BME280;62294;48.554;10.202;2024-03-06T03:36:54;79827.38;;;4.65;100.00
73941;BME280;62294;48.554;10.202;2024-03-06T03:39:21;79855.75;;;4.57;100.00
73941;BME280;62294;48.554;10.202;2024-03-06T03:41:50;79879.72;;;4.52;100.00
73941;BME280;62294;48.554;10.202;2024-03-06T03:44:17;79829.19;;;4.63;100.00
73941;BME280;62294;48.554;10.202;2024-03-06T03:46:47;79763.38;;;4.70;100.00
73941;BME280;62294;48.554;10.202;2024-03-06T03:49:14;79838.09;;;4.58;100.00
73941;BME280;62294;48.554;10.202;2024-03-06T03:51:41;79804.22;;;4.62;100.00
73941;BME280;62294;48.554;10.202;2024-03-06T03:54:07;79782.81;;;4.65;100.00
73941;BME280;62294;48.554;10.202;2024-03-06T03:56:34;79798.78;;;4.58;100.00
73941;BME280;62294;48.554;10.202;2024-03-06T03:59:01;79805.28;;;4.57;100.00
73941;BME280;62294;48.554;10.202;2024-03-06T04:01:28;79764.53;;;4.67;100.00
73941;BME280;62294;48.554;10.202;2024-03-06T04:03:54;79733.19;;;4.69;100.00
73941;BME280;62294;48.554;10.202;2024-03-06T04:06:21;79734.44;;;4.68;100.00
73941;BME280;62294;48.554;10.202;2024-03-06T04:08:48;79724.28;;;4.74;100.00
73941;BME280;62294;48.554;10.202;2024-03-06T04:11:15;79719.69;;;4.75;100.00
73941;BME280;62294;48.554;10.202;2024-03-06T04:13:42;79778.13;;;4.64;100.00
73941;BME280;62294;48.554;10.202;2024-03-06T04:16:08;79788.50;;;4.62;100.00
73941;BME280;62294;48.554;10.202;2024-03-06T04:18:35;79790.91;;;4.58;100.00
73941;BME280;62294;48.554;10.202;2024-03-06T04:21:05;79743.56;;;4.67;100.00
73941;BME280;62294;48.554;10.202;2024-03-06T04:23:33;79812.25;;;4.52;100.00
73941;BME280;62294;48.554;10.202;2024-03-06T04:26:00;79805.06;;;4.53;100.00
73941;BME280;62294;48.554;10.202;2024-03-06T04:28:26;79785.47;;;4.54;100.00
73941;BME280;62294;48.554;10.202;2024-03-06T04:30:53;79743.03;;;4.57;100.00
73941;BME280;62294;48.554;10.202;2024-03-06T04:33:20;79765.75;;;4.53;100.00
73941;BME280;62294;48.554;10.202;2024-03-06T04:35:46;79817.16;;;4.46;100.00
73941;BME280;62294;48.554;10.202;2024-03-06T04:38:13;79790.03;;;4.53;100.00
73941;BME280;62294;48.554;10.202;2024-03-06T04:40:40;79818.66;;;4.49;100.00
73941;BME280;62294;48.554;10.202;2024-03-06T04:43:06;79774.19;;;4.51;100.00
73941;BME280;62294;48.554;10.202;2024-03-06T04:45:33;79685.28;;;4.55;100.00
73941;BME280;62294;48.554;10.202;2024-03-06T04:48:00;79734.09;;;4.49;100.00
73941;BME280;62294;48.554;10.202;2024-03-06T04:50:27;79700.22;;;4.53;100.00
73941;BME280;62294;48.554;10.202;2024-03-06T04:52:54;79792.78;;;4.44;100.00
73941;BME280;62294;48.554;10.202;2024-03-06T04:55:20;79846.13;;;4.37;100.00
73941;BME280;62294;48.554;10.202;2024-03-06T04:57:49;79822.19;;;4.42;100.00
73941;BME280;62294;48.554;10.202;2024-03-06T05:00:16;79769.50;;;4.50;100.00
73941;BME280;62294;48.554;10.202;2024-03-06T05:02:44;79777.38;;;4.50;100.00
73941;BME280;62294;48.554;10.202;2024-03-06T05:05:29;79780.38;;;4.44;100.00
73941;BME280;62294;48.554;10.202;2024-03-06T05:08:13;79854.47;;;4.33;100.00
73941;BME280;62294;48.554;10.202;2024-03-06T05:11:00;79849.78;;;4.31;100.00
73941;BME280;62294;48.554;10.202;2024-03-06T05:13:44;79804.22;;;4.37;100.00
73941;BME280;62294;48.554;10.202;2024-03-06T05:16:28;79797.50;;;4.33;100.00
73941;BME280;62294;48.554;10.202;2024-03-06T05:19:12;79819.50;;;4.28;100.00
73941;BME280;62294;48.554;10.202;2024-03-06T05:21:56;79731.03;;;4.41;100.00
73941;BME280;62294;48.554;10.202;2024-03-06T05:24:40;79735.03;;;4.42;100.00
73941;BME280;62294;48.554;10.202;2024-03-06T05:27:25;79786.78;;;4.29;100.00
73941;BME280;62294;48.554;10.202;2024-03-06T05:30:10;79774.28;;;4.28;100.00
73941;BME280;62294;48.554;10.202;2024-03-06T05:32:54;79776.00;;;4.23;100.00
73941;BME280;62294;48.554;10.202;2024-03-06T05:35:38;79683.75;;;4.39;100.00
73941;BME280;62294;48.554;10.202;2024-03-06T05:38:22;79675.22;;;4.38;100.00
73941;BME280;62294;48.554;10.202;2024-03-06T05:41:07;79692.56;;;4.31;100.00
73941;BME280;62294;48.554;10.202;2024-03-06T05:43:52;79627.59;;;4.42;100.00
73941;BME280;62294;48.554;10.202;2024-03-06T05:46:36;79576.03;;;4.46;100.00
73941;BME280;62294;48.554;10.202;2024-03-06T05:49:20;79567.69;;;4.36;100.00
73941;BME280;62294;48.554;10.202;2024-03-06T05:52:04;79543.03;;;4.41;100.00
73941;BME280;62294;48.554;10.202;2024-03-06T05:54:48;79546.25;;;4.40;100.00
73941;BME280;62294;48.554;10.202;2024-03-06T05:57:32;79533.25;;;4.42;100.00
73941;BME280;62294;48.554;10.202;2024-03-06T06:00:16;79497.16;;;4.40;100.00
73941;BME280;62294;48.554;10.202;2024-03-06T06:02:44;79491.41;;;4.44;100.00
73941;BME280;62294;48.554;10.202;2024-03-06T06:05:12;79519.25;;;4.37;100.00
73941;BME280;62294;48.554;10.202;2024-03-06T06:07:50;79546.13;;;4.24;100.00
73941;BME280;62294;48.554;10.202;2024-03-06T06:10:17;79504.00;;;4.33;100.00
73941;BME280;62294;48.554;10.202;2024-03-06T06:12:47;79489.75;;;4.37;100.00
73941;BME280;62294;48.554;10.202;2024-03-06T06:15:14;79529.94;;;4.27;100.00
73941;BME280;62294;48.554;10.202;2024-03-06T06:17:42;79546.78;;;4.24;100.00
73941;BME280;62294;48.554;10.202;2024-03-06T06:20:11;79572.13;;;4.20;100.00
73941;BME280;62294;48.554;10.202;2024-03-06T06:22:42;79615.97;;;4.06;100.00
73941;BME280;62294;48.554;10.202;2024-03-06T06:25:08;79592.94;;;4.04;100.00
73941;BME280;62294;48.554;10.202;2024-03-06T06:27:36;79431.44;;;4.09;100.00
73941;BME280;62294;48.554;10.202;2024-03-06T06:30:03;79331.63;;;4.16;100.00
73941;BME280;62294;48.554;10.202;2024-03-06T06:32:32;79212.16;;;4.25;100.00
73941;BME280;62294;48.554;10.202;2024-03-06T06:34:59;79229.19;;;4.10;100.00
73941;BME280;62294;48.554;10.202;2024-03-06T06:37:26;79126.47;;;4.27;100.00
73941;BME280;62294;48.554;10.202;2024-03-06T06:39:52;79090.31;;;4.24;100.00
73941;BME280;62294;48.554;10.202;2024-03-06T06:42:19;79050.75;;;4.18;100.00
73941;BME280;62294;48.554;10.202;2024-03-06T06:44:45;79002.00;;;4.26;100.00
73941;BME280;62294;48.554;10.202;2024-03-06T06:47:12;78983.66;;;4.26;100.00
73941;BME280;62294;48.554;10.202;2024-03-06T06:49:39;78990.75;;;4.24;100.00
73941;BME280;62294;48.554;10.202;2024-03-06T06:52:05;78947.94;;;4.17;100.00
73941;BME280;62294;48.554;10.202;2024-03-06T06:54:32;78936.19;;;4.18;100.00
73941;BME280;62294;48.554;10.202;2024-03-06T06:56:58;78797.88;;;4.32;100.00
73941;BME280;62294;48.554;10.202;2024-03-06T06:59:25;78831.41;;;4.18;100.00
73941;BME280;62294;48.554;10.202;2024-03-06T07:01:51;78802.75;;;4.22;100.00
73941;BME280;62294;48.554;10.202;2024-03-06T07:04:18;78779.34;;;4.26;100.00
73941;BME280;62294;48.554;10.202;2024-03-06T07:06:46;78774.00;;;4.24;100.00
73941;BME280;62294;48.554;10.202;2024-03-06T07:09:13;78662.88;;;4.29;100.00
73941;BME280;62294;48.554;10.202;2024-03-06T07:11:43;78682.41;;;4.26;100.00
73941;BME280;62294;48.554;10.202;2024-03-06T07:14:14;78639.41;;;4.33;100.00
73941;BME280;62294;48.554;10.202;2024-03-06T07:16:44;78683.63;;;4.23;100.00
73941;BME280;62294;48.554;10.202;2024-03-06T07:19:11;78579.38;;;4.40;100.00
73941;BME280;62294;48.554;10.202;2024-03-06T07:21:38;78568.16;;;4.37;100.00
73941;BME280;62294;48.554;10.202;2024-03-06T07:24:05;78494.34;;;4.43;100.00
73941;BME280;62294;48.554;10.202;2024-03-06T07:26:33;78427.94;;;4.56;100.00
73941;BME280;62294;48.554;10.202;2024-03-06T07:29:00;78477.28;;;4.42;100.00
73941;BME280;62294;48.554;10.202;2024-03-06T07:31:27;78479.22;;;4.41;100.00
73941;BME280;62294;48.554;10.202;2024-03-06T07:33:54;78399.91;;;4.60;100.00
73941;BME280;62294;48.554;10.202;2024-03-06T07:36:20;78394.03;;;4.62;100.00
73941;BME280;62294;48.554;10.202;2024-03-06T07:38:47;78448.09;;;4.51;100.00
73941;BME280;62294;48.554;10.202;2024-03-06T07:41:14;78414.16;;;4.55;100.00
73941;BME280;62294;48.554;10.202;2024-03-06T07:43:40;78364.66;;;4.65;100.00
73941;BME280;62294;48.554;10.202;2024-03-06T07:46:07;78358.88;;;4.69;100.00
73941;BME280;62294;48.554;10.202;2024-03-06T07:48:37;78421.53;;;4.61;100.00
73941;BME280;62294;48.554;10.202;2024-03-06T07:51:04;78462.00;;;4.56;100.00
73941;BME280;62294;48.554;10.202;2024-03-06T07:53:31;78407.41;;;4.70;100.00
73941;BME280;62294;48.554;10.202;2024-03-06T07:55:57;78394.41;;;4.74;100.00
73941;BME280;62294;48.554;10.202;2024-03-06T07:58:24;78479.19;;;4.61;100.00
73941;BME280;62294;48.554;10.202;2024-03-06T08:00:52;78481.88;;;4.63;100.00
73941;BME280;62294;48.554;10.202;2024-03-06T08:03:25;78474.00;;;4.63;100.00
73941;BME280;62294;48.554;10.202;2024-03-06T08:05:52;78396.03;;;4.85;100.00
73941;BME280;62294;48.554;10.202;2024-03-06T08:08:21;78377.72;;;4.87;100.00
73941;BME280;62294;48.554;10.202;2024-03-06T08:10:48;78437.13;;;4.78;100.00
73941;BME280;62294;48.554;10.202;2024-03-06T08:13:15;78363.47;;;4.92;100.00
73941;BME280;62294;48.554;10.202;2024-03-06T08:15:42;78390.69;;;4.81;100.00
73941;BME280;62294;48.554;10.202;2024-03-06T08:18:12;78315.16;;;4.99;100.00
73941;BME280;62294;48.554;10.202;2024-03-06T08:20:40;78416.91;;;4.81;100.00
73941;BME280;62294;48.554;10.202;2024-03-06T08:23:07;78353.81;;;4.98;100.00
73941;BME280;62294;48.554;10.202;2024-03-06T08:25:34;78398.81;;;4.91;100.00
73941;BME280;62294;48.554;10.202;2024-03-06T08:28:01;78406.19;;;4.96;100.00
73941;BME280;62294;48.554;10.202;2024-03-06T08:30:29;78371.06;;;5.06;100.00
73941;BME280;62294;48.554;10.202;2024-03-06T08:32:58;78321.38;;;5.12;100.00
73941;BME280;62294;48.554;10.202;2024-03-06T08:35:26;78370.38;;;5.05;100.00
73941;BME280;62294;48.554;10.202;2024-03-06T08:37:52;78401.75;;;5.01;100.00
73941;BME280;62294;48.554;10.202;2024-03-06T08:40:20;78413.00;;;5.06;100.00
73941;BME280;62294;48.554;10.202;2024-03-06T08:42:47;78401.41;;;5.13;100.00
73941;BME280;62294;48.554;10.202;2024-03-06T08:45:13;78432.69;;;5.07;100.00
73941;BME280;62294;48.554;10.202;2024-03-06T08:47:41;78410.00;;;5.15;100.00
73941;BME280;62294;48.554;10.202;2024-03-06T08:50:09;78475.41;;;5.09;100.00
73941;BME280;62294;48.554;10.202;2024-03-06T08:52:36;78493.81;;;5.11;100.00
73941;BME280;62294;48.554;10.202;2024-03-06T08:55:03;78514.75;;;5.09;100.00
73941;BME280;62294;48.554;10.202;2024-03-06T08:57:33;78493.91;;;5.13;100.00
73941;BME280;62294;48.554;10.202;2024-03-06T09:00:01;78430.00;;;5.26;100.00
73941;BME280;62294;48.554;10.202;2024-03-06T09:02:27;78438.59;;;5.29;100.00
73941;BME280;62294;48.554;10.202;2024-03-06T09:04:54;78405.44;;;5.39;100.00
73941;BME280;62294;48.554;10.202;2024-03-06T09:07:20;78441.38;;;5.35;100.00
73941;BME280;62294;48.554;10.202;2024-03-06T09:09:50;78429.84;;;5.44;100.00
73941;BME280;62294;48.554;10.202;2024-03-06T09:12:18;78444.97;;;5.45;100.00
73941;BME280;62294;48.554;10.202;2024-03-06T09:14:45;78533.06;;;5.29;100.00
73941;BME280;62294;48.554;10.202;2024-03-06T09:17:12;78543.09;;;5.36;100.00
73941;BME280;62294;48.554;10.202;2024-03-06T09:19:41;78598.69;;;5.31;100.00
73941;BME280;62294;48.554;10.202;2024-03-06T09:22:25;78564.22;;;5.40;100.00
73941;BME280;62294;48.554;10.202;2024-03-06T09:24:52;78507.03;;;5.58;100.00
73941;BME280;62294;48.554;10.202;2024-03-06T09:27:18;78573.63;;;5.47;100.00
73941;BME280;62294;48.554;10.202;2024-03-06T09:29:45;78670.28;;;5.33;100.00
73941;BME280;62294;48.554;10.202;2024-03-06T09:32:12;78747.38;;;5.24;100.00
73941;BME280;62294;48.554;10.202;2024-03-06T09:34:45;78740.38;;;5.31;100.00
73941;BME280;62294;48.554;10.202;2024-03-06T09:37:11;78809.00;;;5.23;100.00
73941;BME280;62294;48.554;10.202;2024-03-06T09:39:38;78891.31;;;5.14;100.00
73941;BME280;62294;48.554;10.202;2024-03-06T09:42:04;78912.22;;;5.12;100.00
73941;BME280;62294;48.554;10.202;2024-03-06T09:44:31;78828.78;;;5.26;100.00
73941;BME280;62294;48.554;10.202;2024-03-06T09:46:59;78846.34;;;5.22;100.00
73941;BME280;62294;48.554;10.202;2024-03-06T09:49:27;78857.34;;;5.18;100.00
73941;BME280;62294;48.554;10.202;2024-03-06T09:51:54;78835.91;;;5.24;100.00
73941;BME280;62294;48.554;10.202;2024-03-06T09:54:22;78760.84;;;5.34;100.00
73941;BME280;62294;48.554;10.202;2024-03-06T09:56:50;78781.69;;;5.30;100.00
73941;BME280;62294;48.554;10.202;2024-03-06T09:59:16;78803.97;;;5.29;100.00
73941;BME280;62294;48.554;10.202;2024-03-06T10:01:53;78798.13;;;5.31;100.00
73941;BME280;62294;48.554;10.202;2024-03-06T10:04:27;78792.88;;;5.31;100.00
73941;BME280;62294;48.554;10.202;2024-03-06T10:06:57;78792.19;;;5.30;100.00
73941;BME280;62294;48.554;10.202;2024-03-06T10:09:26;78779.81;;;5.33;100.00
73941;BME280;62294;48.554;10.202;2024-03-06T10:11:53;78688.50;;;5.49;100.00
73941;BME280;62294;48.554;10.202;2024-03-06T10:14:23;78638.06;;;5.52;100.00
73941;BME280;62294;48.554;10.202;2024-03-06T10:16:53;78617.22;;;5.56;100.00
73941;BME280;62294;48.554;10.202;2024-03-06T10:19:20;78547.91;;;5.65;100.00
73941;BME280;62294;48.554;10.202;2024-03-06T10:21:48;78497.03;;;5.77;100.00
73941;BME280;62294;48.554;10.202;2024-03-06T10:26:57;78495.69;;;5.75;100.00
73941;BME280;62294;48.554;10.202;2024-03-06T10:29:26;78449.94;;;5.83;100.00
73941;BME280;62294;48.554;10.202;2024-03-06T10:31:54;78399.09;;;5.96;100.00
73941;BME280;62294;48.554;10.202;2024-03-06T10:34:23;78416.69;;;5.91;100.00
73941;BME280;62294;48.554;10.202;2024-03-06T10:36:54;78372.31;;;6.01;100.00
73941;BME280;62294;48.554;10.202;2024-03-06T10:39:21;78270.38;;;6.23;100.00
73941;BME280;62294;48.554;10.202;2024-03-06T10:41:55;78274.34;;;6.24;100.00
73941;BME280;62294;48.554;10.202;2024-03-06T10:44:26;78197.75;;;6.36;100.00
73941;BME280;62294;48.554;10.202;2024-03-06T10:47:00;78195.22;;;6.40;100.00
73941;BME280;62294;48.554;10.202;2024-03-06T10:49:28;78337.94;;;6.19;100.00
73941;BME280;62294;48.554;10.202;2024-03-06T10:51:59;78287.03;;;6.32;100.00
73941;BME280;62294;48.554;10.202;2024-03-06T10:54:27;78291.09;;;6.39;100.00
73941;BME280;62294;48.554;10.202;2024-03-06T10:56:55;78215.28;;;6.57;100.00
73941;BME280;62294;48.554;10.202;2024-03-06T10:59:26;78289.94;;;6.46;100.00
73941;BME280;62294;48.554;10.202;2024-03-06T11:01:55;78363.38;;;6.38;100.00
73941;BME280;62294;48.554;10.202;2024-03-06T11:04:25;78399.44;;;6.35;100.00
73941;BME280;62294;48.554;10.202;2024-03-06T11:06:57;78401.56;;;6.41;100.00
73941;BME280;62294;48.554;10.202;2024-03-06T11:12:02;78495.94;;;6.33;100.00
73941;BME280;62294;48.554;10.202;2024-03-06T11:14:31;78522.91;;;6.33;100.00
73941;BME280;62294;48.554;10.202;2024-03-06T11:17:03;78526.31;;;6.38;100.00
73941;BME280;62294;48.554;10.202;2024-03-06T11:19:31;78572.28;;;6.37;100.00
73941;BME280;62294;48.554;10.202;2024-03-06T11:21:58;78518.81;;;6.52;100.00
73941;BME280;62294;48.554;10.202;2024-03-06T11:24:32;78624.03;;;6.32;100.00
73941;BME280;62294;48.554;10.202;2024-03-06T11:27:00;78580.44;;;6.47;100.00
73941;BME280;62294;48.554;10.202;2024-03-06T11:29:29;78553.06;;;6.56;100.00
73941;BME280;62294;48.554;10.202;2024-03-06T11:32:07;78478.44;;;6.67;100.00
73941;BME280;62294;48.554;10.202;2024-03-06T11:34:35;78539.16;;;6.52;100.00
73941;BME280;62294;48.554;10.202;2024-03-06T11:37:08;78525.59;;;6.61;100.00
73941;BME280;62294;48.554;10.202;2024-03-06T11:39:39;78537.50;;;6.64;100.00
73941;BME280;62294;48.554;10.202;2024-03-06T11:42:07;78485.25;;;6.78;100.00
73941;BME280;62294;48.554;10.202;2024-03-06T11:44:35;78493.16;;;6.78;100.00
73941;BME280;62294;48.554;10.202;2024-03-06T11:47:08;78579.56;;;6.64;100.00
73941;BME280;62294;48.554;10.202;2024-03-06T11:49:35;78572.53;;;6.71;100.00
73941;BME280;62294;48.554;10.202;2024-03-06T11:52:06;78503.94;;;6.88;100.00
73941;BME280;62294;48.554;10.202;2024-03-06T11:54:34;78504.03;;;6.92;100.00
73941;BME280;62294;48.554;10.202;2024-03-06T11:57:03;78490.94;;;6.94;100.00
73941;BME280;62294;48.554;10.202;2024-03-06T11:59:32;78509.38;;;6.96;100.00
73941;BME280;62294;48.554;10.202;2024-03-06T12:02:01;78486.53;;;7.03;100.00
73941;BME280;62294;48.554;10.202;2024-03-06T12:04:35;78568.41;;;6.89;100.00
73941;BME280;62294;48.554;10.202;2024-03-06T12:07:06;78622.25;;;6.86;100.00
73941;BME280;62294;48.554;10.202;2024-03-06T12:09:35;78648.56;;;6.86;100.00
73941;BME280;62294;48.554;10.202;2024-03-06T12:12:08;78643.50;;;6.94;100.00
73941;BME280;62294;48.554;10.202;2024-03-06T12:14:36;78648.81;;;6.96;100.00
73941;BME280;62294;48.554;10.202;2024-03-06T12:17:03;78686.81;;;6.91;100.00
73941;BME280;62294;48.554;10.202;2024-03-06T12:19:35;78672.66;;;7.02;100.00
73941;BME280;62294;48.554;10.202;2024-03-06T12:22:03;78738.78;;;6.91;100.00
73941;BME280;62294;48.554;10.202;2024-03-06T12:24:33;78755.34;;;6.95;100.00
73941;BME280;62294;48.554;10.202;2024-03-06T12:27:00;78777.78;;;6.98;100.00
73941;BME280;62294;48.554;10.202;2024-03-06T12:29:28;78914.03;;;6.80;100.00
73941;BME280;62294;48.554;10.202;2024-03-06T12:31:57;78871.09;;;6.95;100.00
73941;BME280;62294;48.554;10.202;2024-03-06T12:34:24;78984.97;;;6.78;100.00
73941;BME280;62294;48.554;10.202;2024-03-06T12:36:51;78979.31;;;6.86;100.00
73941;BME280;62294;48.554;10.202;2024-03-06T12:39:18;79076.22;;;6.74;100.00
73941;BME280;62294;48.554;10.202;2024-03-06T12:41:47;79096.00;;;6.75;100.00
73941;BME280;62294;48.554;10.202;2024-03-06T12:44:14;79087.78;;;6.84;100.00
73941;BME280;62294;48.554;10.202;2024-03-06T12:46:42;79085.22;;;6.86;100.00
73941;BME280;62294;48.554;10.202;2024-03-06T12:49:08;79003.03;;;7.07;100.00
73941;BME280;62294;48.554;10.202;2024-03-06T12:51:35;78851.91;;;7.36;100.00
73941;BME280;62294;48.554;10.202;2024-03-06T12:54:01;79018.09;;;7.05;100.00
73941;BME280;62294;48.554;10.202;2024-03-06T12:56:30;79056.69;;;6.98;100.00
73941;BME280;62294;48.554;10.202;2024-03-06T12:58:56;79081.66;;;6.97;100.00
73941;BME280;62294;48.554;10.202;2024-03-06T13:01:23;79068.50;;;6.97;100.00
73941;BME280;62294;48.554;10.202;2024-03-06T13:03:49;79074.44;;;6.98;100.00